createdAt,value
2023-04-20T00:00:24.006Z,52.38
2023-04-20T00:02:50.552Z,52.55
2023-04-20T00:05:17.200Z,52.22
2023-04-20T00:07:43.613Z,52.43
2023-04-20T00:10:10.554Z,52.52
2023-04-20T00:12:37.014Z,52.43
2023-04-20T00:15:03.684Z,51.64
2023-04-20T00:17:30.122Z,52.12
2023-04-20T00:19:56.581Z,52.37
2023-04-20T00:22:23.007Z,52.65
2023-04-20T00:24:49.375Z,52.71
2023-04-20T00:27:15.751Z,52.55
2023-04-20T00:29:42.114Z,52.69
2023-04-20T00:32:08.473Z,52.25
2023-04-20T00:34:34.922Z,52.14
2023-04-20T00:37:01.589Z,52.75
2023-04-20T00:39:28.007Z,53.10
2023-04-20T00:41:54.494Z,52.80
2023-04-20T00:44:20.950Z,53.51
2023-04-20T00:46:47.384Z,53.90
2023-04-20T00:49:13.762Z,53.78
2023-04-20T00:51:40.609Z,53.70
2023-04-20T00:54:07.069Z,54.33
2023-04-20T00:56:33.504Z,54.13
2023-04-20T00:58:59.917Z,53.97
2023-04-20T01:01:26.377Z,54.22
2023-04-20T01:03:53.645Z,54.63
2023-04-20T01:06:21.132Z,54.38
2023-04-20T01:08:51.788Z,55.02
2023-04-20T01:11:18.429Z,54.96
2023-04-20T01:13:44.824Z,54.72
2023-04-20T01:16:11.981Z,54.50
2023-04-20T01:18:46.457Z,54.81
2023-04-20T01:21:14.354Z,54.46
2023-04-20T01:23:40.962Z,54.09
2023-04-20T01:26:12.758Z,54.20
2023-04-20T01:28:39.157Z,54.75
2023-04-20T01:31:06.923Z,54.42
2023-04-20T01:33:33.705Z,55.05
2023-04-20T01:36:00.178Z,55.29
2023-04-20T01:38:26.725Z,55.20
2023-04-20T01:40:54.374Z,55.67
2023-04-20T01:43:21.456Z,55.48
2023-04-20T01:45:47.873Z,55.51
2023-04-20T01:48:14.274Z,55.51
2023-04-20T01:50:40.770Z,55.93
2023-04-20T01:53:07.132Z,56.37
2023-04-20T01:55:34.039Z,56.96
2023-04-20T01:58:00.464Z,57.14
2023-04-20T02:00:26.850Z,56.89
2023-04-20T02:02:53.468Z,57.72
2023-04-20T02:05:20.152Z,57.65
2023-04-20T02:07:46.730Z,58.39
2023-04-20T02:10:13.118Z,59.08
2023-04-20T02:12:39.545Z,59.31
2023-04-20T02:15:07.083Z,59.77
2023-04-20T02:17:33.875Z,59.73
2023-04-20T02:20:00.280Z,60.06
2023-04-20T02:22:26.749Z,60.83
2023-04-20T02:24:53.168Z,61.17
2023-04-20T02:27:19.526Z,61.54
2023-04-20T02:29:46.103Z,62.06
2023-04-20T02:32:12.482Z,62.50
2023-04-20T02:34:38.874Z,62.62
2023-04-20T02:37:05.245Z,63.68
2023-04-20T02:39:31.693Z,64.11
2023-04-20T02:41:58.074Z,64.22
2023-04-20T02:44:24.519Z,64.59
2023-04-20T02:46:50.967Z,65.72
2023-04-20T02:49:17.692Z,66.46
2023-04-20T02:51:44.254Z,66.90
2023-04-20T02:54:10.777Z,68.17
2023-04-20T02:56:37.364Z,68.92
2023-04-20T02:59:04.266Z,69.48
2023-04-20T03:01:30.713Z,70.16
2023-04-20T03:03:57.265Z,70.61
2023-04-20T03:06:23.785Z,71.83
2023-04-20T03:08:50.150Z,71.90
2023-04-20T03:11:16.542Z,72.89
2023-04-20T03:13:42.946Z,72.97
2023-04-20T03:16:09.405Z,73.62
2023-04-20T03:18:35.802Z,74.61
2023-04-20T03:21:02.180Z,74.90
2023-04-20T03:23:28.548Z,75.42
2023-04-20T03:25:54.936Z,76.42
2023-04-20T03:28:21.315Z,78.04
2023-04-20T03:30:47.808Z,79.11
2023-04-20T03:33:14.233Z,78.46
2023-04-20T03:35:40.858Z,79.01
2023-04-20T03:38:07.334Z,80.05
2023-04-20T03:40:33.734Z,80.74
2023-04-20T03:43:00.124Z,80.46
2023-04-20T03:45:26.622Z,80.91
2023-04-20T03:47:53.063Z,81.05
2023-04-20T03:50:19.466Z,82.52
2023-04-20T03:52:45.954Z,83.19
2023-04-20T03:55:12.361Z,83.44
2023-04-20T03:57:38.777Z,83.24
2023-04-20T04:00:05.708Z,83.14
2023-04-20T04:02:32.210Z,82.81
2023-04-20T04:04:58.701Z,83.77
2023-04-20T04:07:25.322Z,83.34
2023-04-20T04:09:51.692Z,82.81
2023-04-20T04:12:18.129Z,83.26
2023-04-20T04:14:44.513Z,83.57
2023-04-20T04:17:11.004Z,83.49
2023-04-20T04:19:37.442Z,83.65
2023-04-20T04:22:03.820Z,84.44
2023-04-20T04:24:30.973Z,84.96
2023-04-20T04:26:58.421Z,84.73
2023-04-20T04:29:28.135Z,85.43
2023-04-20T04:31:54.651Z,85.68
2023-04-20T04:34:21.100Z,85.17
2023-04-20T04:36:48.005Z,86.35
2023-04-20T04:39:14.563Z,86.06
2023-04-20T04:41:41.091Z,85.88
2023-04-20T04:44:07.448Z,85.22
2023-04-20T04:46:33.912Z,85.30
2023-04-20T04:49:04.232Z,85.47
2023-04-20T04:51:31.614Z,85.53
2023-04-20T04:53:58.063Z,85.36
2023-04-20T04:56:24.769Z,85.71
2023-04-20T04:58:51.143Z,87.02
2023-04-20T05:01:17.697Z,87.12
2023-04-20T05:03:44.243Z,86.97
2023-04-20T05:06:10.748Z,87.89
2023-04-20T05:08:37.212Z,88.39
2023-04-20T05:11:03.609Z,87.84
2023-04-20T05:13:30.006Z,88.14
2023-04-20T05:15:56.540Z,88.40
2023-04-20T05:18:23.090Z,88.17
2023-04-20T05:20:49.762Z,88.93
2023-04-20T05:23:16.132Z,90.21
2023-04-20T05:25:43.121Z,90.80
2023-04-20T05:28:09.555Z,93.83
2023-04-20T05:30:35.997Z,96.14
2023-04-20T05:33:02.486Z,98.34
2023-04-20T05:35:29.311Z,100.00
2023-04-20T05:37:55.737Z,100.00
2023-04-20T05:40:22.278Z,100.00
2023-04-20T05:42:48.847Z,100.00
2023-04-20T05:45:15.293Z,100.00
2023-04-20T05:47:41.778Z,100.00
2023-04-20T05:50:08.936Z,100.00
2023-04-20T05:52:35.368Z,100.00
2023-04-20T05:55:01.784Z,100.00
2023-04-20T05:57:28.172Z,100.00
2023-04-20T05:59:55.861Z,100.00
2023-04-20T06:02:22.575Z,100.00
2023-04-20T06:04:49.363Z,100.00
2023-04-20T06:07:15.982Z,100.00
2023-04-20T06:09:42.359Z,100.00
2023-04-20T06:12:09.737Z,100.00
2023-04-20T06:14:36.244Z,100.00
2023-04-20T06:17:02.855Z,100.00
2023-04-20T06:19:29.214Z,100.00
2023-04-20T06:21:55.627Z,100.00
2023-04-20T06:24:22.008Z,100.00
2023-04-20T06:26:55.084Z,100.00
2023-04-20T06:29:21.490Z,100.00
2023-04-20T06:31:47.966Z,100.00
2023-04-20T06:34:14.946Z,100.00
2023-04-20T06:36:44.169Z,100.00
2023-04-20T06:39:13.368Z,100.00
2023-04-20T06:41:39.888Z,100.00
2023-04-20T06:44:06.335Z,100.00
2023-04-20T06:46:32.748Z,100.00
2023-04-20T06:48:59.284Z,100.00
2023-04-20T06:51:26.965Z,100.00
2023-04-20T06:53:54.379Z,100.00
2023-04-20T06:56:21.483Z,100.00
2023-04-20T06:58:47.916Z,100.00
2023-04-20T07:01:14.382Z,100.00
2023-04-20T07:03:41.050Z,100.00
2023-04-20T07:06:07.628Z,100.00
2023-04-20T07:08:34.046Z,100.00
2023-04-20T07:11:00.878Z,100.00
2023-04-20T07:13:30.981Z,100.00
2023-04-20T07:15:59.809Z,100.00
2023-04-20T07:18:26.206Z,100.00
2023-04-20T07:20:52.798Z,100.00
2023-04-20T07:23:20.108Z,100.00
2023-04-20T07:25:46.588Z,100.00
2023-04-20T07:28:12.963Z,100.00
2023-04-20T07:30:39.411Z,100.00
2023-04-20T07:33:05.921Z,100.00
2023-04-20T07:35:32.368Z,100.00
2023-04-20T07:37:58.749Z,100.00
2023-04-20T07:40:25.369Z,100.00
2023-04-20T07:42:52.053Z,100.00
2023-04-20T07:45:19.132Z,100.00
2023-04-20T07:47:47.278Z,100.00
2023-04-20T07:50:13.762Z,100.00
2023-04-20T07:52:40.183Z,100.00
2023-04-20T07:55:08.089Z,100.00
2023-04-20T07:57:35.149Z,100.00
2023-04-20T08:00:01.648Z,100.00
2023-04-20T08:02:28.269Z,100.00
2023-04-20T08:04:55.085Z,100.00
2023-04-20T08:07:21.642Z,100.00
2023-04-20T08:09:48.030Z,100.00
2023-04-20T08:12:14.397Z,100.00
2023-04-20T08:14:41.297Z,100.00
2023-04-20T08:17:08.160Z,100.00
2023-04-20T08:19:34.549Z,100.00
2023-04-20T08:22:01.477Z,100.00
2023-04-20T08:24:29.212Z,100.00
2023-04-20T08:26:55.786Z,100.00
2023-04-20T08:29:22.228Z,100.00
2023-04-20T08:31:50.005Z,100.00
2023-04-20T08:34:17.614Z,100.00
2023-04-20T08:36:44.061Z,100.00
2023-04-20T08:39:12.798Z,100.00
2023-04-20T08:41:39.182Z,100.00
2023-04-20T08:44:07.163Z,100.00
2023-04-20T08:46:34.508Z,100.00
2023-04-20T08:49:04.228Z,100.00
2023-04-20T08:51:33.496Z,100.00
2023-04-20T08:54:05.739Z,100.00
2023-04-20T08:56:36.981Z,100.00
2023-04-20T08:59:05.219Z,100.00
2023-04-20T09:01:35.737Z,100.00
2023-04-20T09:04:03.270Z,100.00
2023-04-20T09:06:29.908Z,100.00
2023-04-20T09:08:56.630Z,100.00
2023-04-20T09:11:32.254Z,100.00
2023-04-20T09:14:10.154Z,100.00
2023-04-20T09:16:40.027Z,100.00
2023-04-20T09:19:09.226Z,100.00
2023-04-20T09:21:36.342Z,100.00
2023-04-20T09:24:09.242Z,100.00
2023-04-20T09:26:36.372Z,100.00
2023-04-20T09:29:03.709Z,100.00
2023-04-20T09:31:30.220Z,100.00
2023-04-20T09:34:03.565Z,100.00
2023-04-20T09:36:46.669Z,100.00
2023-04-20T09:39:17.915Z,100.00
2023-04-20T09:41:44.571Z,100.00
2023-04-20T09:44:12.278Z,100.00
2023-04-20T09:46:40.452Z,100.00
2023-04-20T09:49:10.827Z,100.00
2023-04-20T09:51:38.942Z,100.00
2023-04-20T09:54:06.373Z,96.69
2023-04-20T09:56:34.563Z,98.26
2023-04-20T09:59:01.959Z,98.48
2023-04-20T10:01:34.462Z,99.04
2023-04-20T10:04:02.677Z,99.19
2023-04-20T10:06:34.351Z,99.37
2023-04-20T10:09:02.417Z,98.07
2023-04-20T10:11:48.929Z,97.82
2023-04-20T10:14:20.451Z,96.94
2023-04-20T10:16:59.217Z,93.68
2023-04-20T10:19:36.539Z,91.60
2023-04-20T10:22:03.017Z,89.51
2023-04-20T10:24:30.338Z,88.09
2023-04-20T10:26:56.978Z,87.01
2023-04-20T10:29:27.148Z,86.52
2023-04-20T10:31:54.686Z,86.09
2023-04-20T10:34:34.637Z,84.29
2023-04-20T10:37:11.352Z,83.12
2023-04-20T10:39:47.404Z,83.29
2023-04-20T10:42:15.468Z,84.53
2023-04-20T10:44:51.222Z,83.72
2023-04-20T10:47:18.478Z,82.26
2023-04-20T10:49:45.118Z,80.64
2023-04-20T10:52:11.579Z,81.21
2023-04-20T10:54:39.146Z,80.54
2023-04-20T10:57:06.615Z,81.68
2023-04-20T10:59:37.201Z,82.57
2023-04-20T11:02:07.628Z,82.70
2023-04-20T11:04:35.372Z,80.47
2023-04-20T11:07:10.146Z,76.96
2023-04-20T11:09:38.337Z,76.12
2023-04-20T11:12:11.768Z,74.62
2023-04-20T11:14:49.909Z,72.86
2023-04-20T11:17:16.426Z,71.23
2023-04-20T11:19:42.961Z,69.49
2023-04-20T11:22:09.353Z,69.22
2023-04-20T11:24:37.202Z,69.19
2023-04-20T11:27:05.054Z,69.00
2023-04-20T11:29:36.715Z,68.98
2023-04-20T11:32:06.221Z,68.58
2023-04-20T11:34:37.498Z,69.51
2023-04-20T11:37:09.580Z,69.19
2023-04-20T11:39:36.375Z,66.33
2023-04-20T11:42:03.336Z,64.61
2023-04-20T11:44:29.912Z,63.09
2023-04-20T11:46:59.745Z,60.56
2023-04-20T11:49:28.594Z,60.00
2023-04-20T11:51:55.153Z,58.74
2023-04-20T11:54:25.162Z,57.45
2023-04-20T11:56:51.610Z,57.07
2023-04-20T11:59:20.119Z,58.08
2023-04-20T12:01:47.656Z,57.39
2023-04-20T12:04:15.025Z,57.05
2023-04-20T12:06:42.377Z,57.50
2023-04-20T12:09:08.850Z,57.52
2023-04-20T12:11:35.214Z,57.00
2023-04-20T12:14:01.702Z,57.10
2023-04-20T12:16:28.181Z,57.74
2023-04-20T12:18:54.722Z,58.67
2023-04-20T12:21:21.255Z,58.37
2023-04-20T12:23:49.526Z,59.22
2023-04-20T12:26:16.613Z,59.30
2023-04-20T12:28:45.052Z,60.61
2023-04-20T12:31:11.530Z,60.84
2023-04-20T12:33:38.089Z,60.43
2023-04-20T12:36:05.147Z,59.43
2023-04-20T12:38:31.526Z,58.30
2023-04-20T12:40:57.979Z,59.10
2023-04-20T12:43:24.379Z,60.37
2023-04-20T12:45:50.802Z,60.62
2023-04-20T12:48:17.259Z,60.67
2023-04-20T12:50:43.677Z,60.19
2023-04-20T12:53:10.121Z,60.07
2023-04-20T12:55:36.500Z,60.76
2023-04-20T12:58:02.889Z,59.75
2023-04-20T13:00:29.370Z,56.50
2023-04-20T13:02:55.796Z,55.10
2023-04-20T13:05:22.270Z,54.63
2023-04-20T13:07:48.720Z,55.24
2023-04-20T13:10:15.935Z,56.63
2023-04-20T13:12:42.364Z,57.66
2023-04-20T13:15:09.347Z,58.48
2023-04-20T13:17:36.094Z,57.38
2023-04-20T13:20:02.700Z,57.45
2023-04-20T13:22:29.135Z,59.03
2023-04-20T13:24:55.575Z,59.44
2023-04-20T13:27:22.013Z,59.12
2023-04-20T13:29:48.431Z,54.21
2023-04-20T13:32:14.934Z,51.37
2023-04-20T13:34:41.364Z,50.08
2023-04-20T13:37:07.797Z,48.54
2023-04-20T13:39:34.629Z,47.38
2023-04-20T13:42:01.646Z,45.83
2023-04-20T13:44:28.104Z,47.34
2023-04-20T13:46:54.492Z,47.94
2023-04-20T13:49:23.507Z,47.85
2023-04-20T13:51:50.198Z,49.25
2023-04-20T13:54:16.989Z,48.92
2023-04-20T13:56:43.589Z,48.03
2023-04-20T13:59:10.118Z,48.02
2023-04-20T14:01:36.787Z,48.84
2023-04-20T14:04:03.658Z,47.90
2023-04-20T14:06:31.039Z,47.39
2023-04-20T14:08:57.441Z,47.73
2023-04-20T14:11:23.850Z,47.46
2023-04-20T14:13:50.295Z,46.30
2023-04-20T14:16:16.807Z,46.27
2023-04-20T14:18:43.342Z,47.29
2023-04-20T14:21:09.739Z,46.32
2023-04-20T14:23:36.231Z,47.63
2023-04-20T14:26:03.853Z,49.17
2023-04-20T14:28:32.868Z,49.39
2023-04-20T14:31:00.785Z,48.48
2023-04-20T14:33:27.801Z,47.98
2023-04-20T14:35:54.234Z,47.91
2023-04-20T14:38:20.604Z,48.58
2023-04-20T14:40:48.265Z,49.53
2023-04-20T14:43:14.648Z,48.91
2023-04-20T14:45:41.665Z,49.40
2023-04-20T14:48:08.079Z,49.80
2023-04-20T14:50:34.694Z,49.37
2023-04-20T14:53:01.137Z,49.89
2023-04-20T14:55:28.635Z,51.09
2023-04-20T14:57:56.828Z,51.19
2023-04-20T15:00:24.983Z,50.72
2023-04-20T15:02:53.452Z,48.49
2023-04-20T15:05:20.187Z,47.03
2023-04-20T15:07:50.481Z,47.48
2023-04-20T15:10:18.737Z,47.74
2023-04-20T15:12:45.845Z,49.74
2023-04-20T15:15:12.211Z,50.99
2023-04-20T15:17:38.722Z,51.01
2023-04-20T15:20:06.419Z,51.30
2023-04-20T15:22:32.845Z,51.65
2023-04-20T15:24:59.205Z,53.32
2023-04-20T15:27:25.570Z,53.52
2023-04-20T15:29:51.971Z,53.81
2023-04-20T15:32:18.434Z,54.49
2023-04-20T15:34:44.911Z,54.91
2023-04-20T15:37:11.300Z,55.45
2023-04-20T15:39:37.733Z,56.04
2023-04-20T15:42:04.206Z,55.88
2023-04-20T15:44:30.722Z,56.46
2023-04-20T15:46:58.243Z,56.61
2023-04-20T15:49:24.696Z,57.21
2023-04-20T15:51:51.113Z,56.84
2023-04-20T15:54:19.424Z,57.29
2023-04-20T15:56:46.157Z,57.58
2023-04-20T15:59:12.542Z,57.17
2023-04-20T16:01:38.962Z,56.64
2023-04-20T16:04:05.941Z,55.89
2023-04-20T16:06:32.448Z,55.80
2023-04-20T16:08:58.842Z,54.94
2023-04-20T16:11:25.233Z,55.47
2023-04-20T16:13:51.626Z,56.26
2023-04-20T16:16:18.062Z,56.71
2023-04-20T16:18:44.519Z,57.13
2023-04-20T16:21:10.873Z,57.10
2023-04-20T16:23:37.299Z,58.30
2023-04-20T16:26:03.800Z,58.20
2023-04-20T16:28:30.512Z,58.56
2023-04-20T16:30:57.553Z,58.73
2023-04-20T16:33:24.388Z,59.10
2023-04-20T16:35:51.754Z,59.40
2023-04-20T16:38:19.258Z,60.64
2023-04-20T16:40:45.670Z,62.15
2023-04-20T16:43:12.030Z,63.15
2023-04-20T16:45:38.984Z,63.76
2023-04-20T16:48:05.559Z,63.96
2023-04-20T16:50:32.253Z,64.46
2023-04-20T16:52:58.938Z,65.42
2023-04-20T16:55:26.037Z,66.66
2023-04-20T16:57:59.510Z,67.08
2023-04-20T17:00:29.987Z,69.47
2023-04-20T17:02:56.898Z,71.21
2023-04-20T17:05:24.432Z,73.20
2023-04-20T17:07:50.926Z,75.63
2023-04-20T17:10:17.504Z,74.89
2023-04-20T17:12:43.924Z,78.15
2023-04-20T17:15:10.674Z,81.29
2023-04-20T17:17:37.182Z,82.29
2023-04-20T17:20:07.172Z,83.94
2023-04-20T17:22:35.164Z,85.65
2023-04-20T17:25:01.986Z,86.70
2023-04-20T17:27:28.367Z,87.47
2023-04-20T17:29:55.972Z,88.89
2023-04-20T17:32:22.635Z,89.04
2023-04-20T17:34:51.281Z,93.10
2023-04-20T17:37:18.060Z,94.48
2023-04-20T17:39:44.471Z,94.24
2023-04-20T17:42:12.291Z,93.43
2023-04-20T17:44:39.184Z,94.89
2023-04-20T17:47:06.494Z,94.99
2023-04-20T17:49:34.717Z,94.96
2023-04-20T17:52:01.226Z,96.61
2023-04-20T17:54:27.605Z,98.16
2023-04-20T17:56:54.056Z,100.00
2023-04-20T17:59:20.676Z,100.00
2023-04-20T18:01:49.174Z,98.61
2023-04-20T18:04:16.264Z,99.37
2023-04-20T18:06:42.917Z,100.00
2023-04-20T18:09:09.872Z,100.00
2023-04-20T18:11:36.302Z,100.00
2023-04-20T18:14:02.766Z,100.00
2023-04-20T18:16:29.328Z,100.00
2023-04-20T18:18:55.788Z,100.00
2023-04-20T18:21:22.223Z,100.00
2023-04-20T18:23:48.646Z,100.00
2023-04-20T18:26:17.669Z,100.00
2023-04-20T18:28:44.882Z,100.00
2023-04-20T18:31:11.723Z,100.00
2023-04-20T18:33:38.165Z,100.00
2023-04-20T18:36:05.471Z,100.00
2023-04-20T18:38:32.454Z,100.00
2023-04-20T18:40:59.740Z,100.00
2023-04-20T18:43:26.502Z,100.00
2023-04-20T18:45:52.853Z,100.00
2023-04-20T18:48:19.184Z,100.00
2023-04-20T18:50:47.436Z,100.00
2023-04-20T18:53:14.537Z,100.00
2023-04-20T18:55:41.290Z,100.00
2023-04-20T18:58:07.734Z,99.38
2023-04-20T19:00:34.180Z,98.73
2023-04-20T19:03:00.754Z,98.79
2023-04-20T19:05:27.258Z,99.14
2023-04-20T19:07:53.631Z,99.19
2023-04-20T19:10:20.064Z,99.77
2023-04-20T19:12:46.428Z,100.00
2023-04-20T19:15:12.824Z,100.00
2023-04-20T19:17:39.350Z,100.00
2023-04-20T19:20:06.532Z,100.00
2023-04-20T19:22:33.077Z,100.00
2023-04-20T19:24:59.463Z,100.00
2023-04-20T19:27:26.461Z,100.00
2023-04-20T19:29:52.879Z,100.00
2023-04-20T19:32:19.403Z,100.00
2023-04-20T19:34:45.880Z,100.00
2023-04-20T19:37:12.299Z,100.00
2023-04-20T19:39:38.756Z,100.00
2023-04-20T19:42:05.132Z,100.00
2023-04-20T19:44:31.564Z,100.00
2023-04-20T19:46:57.963Z,100.00
2023-04-20T19:49:24.387Z,100.00
2023-04-20T19:51:50.751Z,100.00
2023-04-20T19:54:17.485Z,100.00
2023-04-20T19:56:43.883Z,100.00
2023-04-20T19:59:10.317Z,100.00
2023-04-20T20:01:36.734Z,100.00
2023-04-20T20:04:03.269Z,100.00
2023-04-20T20:06:29.838Z,100.00
2023-04-20T20:08:56.714Z,100.00
2023-04-20T20:11:25.133Z,100.00
2023-04-20T20:13:51.982Z,100.00
2023-04-20T20:16:19.098Z,100.00
2023-04-20T20:18:47.953Z,99.61
2023-04-20T20:21:14.331Z,99.74
2023-04-20T20:23:40.735Z,99.61
2023-04-20T20:26:07.161Z,100.00
2023-04-20T20:28:33.609Z,100.00
2023-04-20T20:31:00.366Z,100.00
2023-04-20T20:33:26.873Z,99.70
2023-04-20T20:35:53.321Z,99.79
2023-04-20T20:38:20.932Z,100.00
2023-04-20T20:40:50.448Z,99.66
2023-04-20T20:43:18.245Z,99.71
2023-04-20T20:45:44.770Z,98.95
2023-04-20T20:48:11.171Z,98.96
2023-04-20T20:50:37.563Z,99.47
2023-04-20T20:53:03.957Z,98.45
2023-04-20T20:55:30.636Z,98.27
2023-04-20T20:57:57.005Z,97.88
2023-04-20T21:00:23.702Z,98.50
2023-04-20T21:02:50.658Z,99.06
2023-04-20T21:05:17.115Z,99.20
2023-04-20T21:07:43.487Z,99.36
2023-04-20T21:10:11.736Z,99.45
2023-04-20T21:12:38.142Z,99.00
2023-04-20T21:15:04.845Z,98.95
2023-04-20T21:17:31.319Z,98.76
2023-04-20T21:19:57.711Z,100.00
2023-04-20T21:22:24.132Z,100.00
2023-04-20T21:24:50.569Z,100.00
2023-04-20T21:27:17.021Z,100.00
2023-04-20T21:29:43.386Z,100.00
2023-04-20T21:32:09.804Z,100.00
2023-04-20T21:34:36.294Z,99.45
2023-04-20T21:37:05.722Z,99.28
2023-04-20T21:39:32.347Z,99.98
2023-04-20T21:41:59.615Z,99.91
2023-04-20T21:44:26.239Z,100.00
2023-04-20T21:46:52.667Z,100.00
2023-04-20T21:49:19.425Z,100.00
2023-04-20T21:51:45.932Z,100.00
2023-04-20T21:54:12.403Z,100.00
2023-04-20T21:56:38.796Z,99.37
2023-04-20T21:59:05.226Z,99.22
2023-04-20T22:01:31.673Z,100.00
2023-04-20T22:03:58.253Z,100.00
2023-04-20T22:06:24.800Z,100.00
2023-04-20T22:08:51.244Z,100.00
2023-04-20T22:11:17.696Z,100.00
2023-04-20T22:13:45.187Z,100.00
2023-04-20T22:16:11.637Z,100.00
2023-04-20T22:18:38.024Z,100.00
2023-04-20T22:21:04.415Z,100.00
2023-04-20T22:23:30.823Z,100.00
2023-04-20T22:25:57.187Z,100.00
2023-04-20T22:28:23.587Z,100.00
2023-04-20T22:30:50.031Z,100.00
2023-04-20T22:33:16.569Z,100.00
2023-04-20T22:35:43.002Z,100.00
2023-04-20T22:38:09.421Z,100.00
2023-04-20T22:40:35.796Z,100.00
2023-04-20T22:43:02.181Z,100.00
2023-04-20T22:45:28.720Z,100.00
2023-04-20T22:47:55.175Z,100.00
2023-04-20T22:50:21.596Z,100.00
2023-04-20T22:52:49.514Z,100.00
2023-04-20T22:55:16.060Z,100.00
2023-04-20T22:57:42.498Z,100.00
2023-04-20T23:00:13.825Z,100.00
2023-04-20T23:02:40.856Z,100.00
2023-04-20T23:05:07.615Z,100.00
2023-04-20T23:07:34.050Z,100.00
2023-04-20T23:10:01.357Z,100.00
2023-04-20T23:12:29.352Z,100.00
2023-04-20T23:15:00.334Z,100.00
2023-04-20T23:17:27.963Z,100.00
2023-04-20T23:19:55.124Z,100.00
2023-04-20T23:22:21.500Z,100.00
2023-04-20T23:24:47.876Z,100.00
2023-04-20T23:27:14.241Z,100.00
2023-04-20T23:29:41.388Z,100.00
2023-04-20T23:32:07.811Z,100.00
2023-04-20T23:34:34.230Z,100.00
2023-04-20T23:37:00.641Z,100.00
2023-04-20T23:39:27.035Z,100.00
2023-04-20T23:41:53.509Z,100.00
2023-04-20T23:44:19.928Z,100.00
2023-04-20T23:46:46.642Z,100.00
2023-04-20T23:49:13.064Z,100.00
2023-04-20T23:51:39.485Z,100.00
2023-04-20T23:54:05.875Z,100.00
2023-04-20T23:56:32.247Z,100.00
2023-04-20T23:58:59.128Z,100.00
